sensor_id;sensor_type;location;lat;lon;timestamp;temperature;humidity
29775;DHT22;16676;51.202;6.774;2024-01-15T00:02:23;18.80;67.10
29775;DHT22;16676;51.202;6.774;2024-01-15T00:06:25;18.70;67.50
29775;DHT22;16676;51.202;6.774;2024-01-15T00:10:29;18.50;68.50
29775;DHT22;16676;51.202;6.774;2024-01-15T00:14:31;18.40;69.10
29775;DHT22;16676;51.202;6.774;2024-01-15T00:18:34;18.30;69.20
29775;DHT22;16676;51.202;6.774;2024-01-15T00:22:36;18.30;69.60
29775;DHT22;16676;51.202;6.774;2024-01-15T00:26:38;18.20;70.00
29775;DHT22;16676;51.202;6.774;2024-01-15T00:30:39;18.10;69.70
29775;DHT22;16676;51.202;6.774;2024-01-15T00:34:43;18.10;69.70
29775;DHT22;16676;51.202;6.774;2024-01-15T00:38:45;18.10;70.20
29775;DHT22;16676;51.202;6.774;2024-01-15T00:42:48;18.10;69.70
29775;DHT22;16676;51.202;6.774;2024-01-15T00:46:49;18.00;70.50
29775;DHT22;16676;51.202;6.774;2024-01-15T00:50:53;17.90;70.70
29775;DHT22;16676;51.202;6.774;2024-01-15T00:54:55;17.90;71.10
29775;DHT22;16676;51.202;6.774;2024-01-15T00:58:57;17.90;71.40
29775;DHT22;16676;51.202;6.774;2024-01-15T01:02:59;17.80;71.50
29775;DHT22;16676;51.202;6.774;2024-01-15T01:07:02;17.90;71.30
29775;DHT22;16676;51.202;6.774;2024-01-15T01:11:04;17.80;71.10
29775;DHT22;16676;51.202;6.774;2024-01-15T01:15:07;17.90;70.50
29775;DHT22;16676;51.202;6.774;2024-01-15T01:19:09;17.90;70.90
29775;DHT22;16676;51.202;6.774;2024-01-15T01:23:13;17.90;70.10
29775;DHT22;16676;51.202;6.774;2024-01-15T01:27:15;17.80;70.60
29775;DHT22;16676;51.202;6.774;2024-01-15T01:31:16;17.80;70.50
29775;DHT22;16676;51.202;6.774;2024-01-15T01:35:18;17.80;70.60
29775;DHT22;16676;51.202;6.774;2024-01-15T01:39:22;17.70;70.90
29775;DHT22;16676;51.202;6.774;2024-01-15T01:43:23;17.70;71.10
29775;DHT22;16676;51.202;6.774;2024-01-15T01:47:25;17.60;70.90
29775;DHT22;16676;51.202;6.774;2024-01-15T01:51:28;17.70;71.40
29775;DHT22;16676;51.202;6.774;2024-01-15T01:55:31;17.60;70.90
29775;DHT22;16676;51.202;6.774;2024-01-15T01:59:35;17.70;70.50
29775;DHT22;16676;51.202;6.774;2024-01-15T02:03:39;17.60;70.90
29775;DHT22;16676;51.202;6.774;2024-01-15T02:07:41;17.60;70.80
29775;DHT22;16676;51.202;6.774;2024-01-15T02:11:46;17.60;70.90
29775;DHT22;16676;51.202;6.774;2024-01-15T02:15:48;17.50;70.90
29775;DHT22;16676;51.202;6.774;2024-01-15T02:19:50;17.50;70.80
29775;DHT22;16676;51.202;6.774;2024-01-15T02:23:53;17.50;71.00
29775;DHT22;16676;51.202;6.774;2024-01-15T02:27:55;17.60;71.00
29775;DHT22;16676;51.202;6.774;2024-01-15T02:31:57;17.50;70.50
29775;DHT22;16676;51.202;6.774;2024-01-15T02:35:59;17.60;70.40
29775;DHT22;16676;51.202;6.774;2024-01-15T02:40:03;17.50;70.80
29775;DHT22;16676;51.202;6.774;2024-01-15T02:44:05;17.40;70.70
29775;DHT22;16676;51.202;6.774;2024-01-15T02:48:07;17.50;70.90
29775;DHT22;16676;51.202;6.774;2024-01-15T02:52:09;17.50;71.00
29775;DHT22;16676;51.202;6.774;2024-01-15T02:56:12;17.40;71.20
29775;DHT22;16676;51.202;6.774;2024-01-15T03:00:14;17.40;71.10
29775;DHT22;16676;51.202;6.774;2024-01-15T03:04:16;17.40;70.80
29775;DHT22;16676;51.202;6.774;2024-01-15T03:08:18;17.40;70.90
29775;DHT22;16676;51.202;6.774;2024-01-15T03:12:21;17.40;70.70
29775;DHT22;16676;51.202;6.774;2024-01-15T03:16:23;17.40;70.70
29775;DHT22;16676;51.202;6.774;2024-01-15T03:20:25;17.40;70.70
29775;DHT22;16676;51.202;6.774;2024-01-15T03:24:27;17.40;70.70
29775;DHT22;16676;51.202;6.774;2024-01-15T03:28:30;17.30;70.90
29775;DHT22;16676;51.202;6.774;2024-01-15T03:32:32;17.30;70.60
29775;DHT22;16676;51.202;6.774;2024-01-15T03:36:34;17.30;70.80
29775;DHT22;16676;51.202;6.774;2024-01-15T03:40:36;17.20;70.90
29775;DHT22;16676;51.202;6.774;2024-01-15T03:44:39;17.20;71.00
29775;DHT22;16676;51.202;6.774;2024-01-15T03:48:49;17.20;71.10
29775;DHT22;16676;51.202;6.774;2024-01-15T03:52:51;17.20;71.00
29775;DHT22;16676;51.202;6.774;2024-01-15T03:56:53;17.20;71.00
29775;DHT22;16676;51.202;6.774;2024-01-15T04:00:55;17.20;71.30
29775;DHT22;16676;51.202;6.774;2024-01-15T04:04:58;17.20;71.20
29775;DHT22;16676;51.202;6.774;2024-01-15T04:09:00;17.10;71.20
29775;DHT22;16676;51.202;6.774;2024-01-15T04:13:02;17.20;70.80
29775;DHT22;16676;51.202;6.774;2024-01-15T04:17:04;17.10;71.10
29775;DHT22;16676;51.202;6.774;2024-01-15T04:21:07;17.10;71.30
29775;DHT22;16676;51.202;6.774;2024-01-15T04:25:09;17.10;72.00
29775;DHT22;16676;51.202;6.774;2024-01-15T04:29:11;17.20;72.00
29775;DHT22;16676;51.202;6.774;2024-01-15T04:33:13;17.30;71.90
29775;DHT22;16676;51.202;6.774;2024-01-15T04:37:16;17.30;71.80
29775;DHT22;16676;51.202;6.774;2024-01-15T04:41:18;17.30;71.60
29775;DHT22;16676;51.202;6.774;2024-01-15T04:45:20;17.50;71.80
29775;DHT22;16676;51.202;6.774;2024-01-15T04:49:23;17.70;71.60
29775;DHT22;16676;51.202;6.774;2024-01-15T04:53:28;17.90;71.20
29775;DHT22;16676;51.202;6.774;2024-01-15T04:57:30;18.20;70.60
29775;DHT22;16676;51.202;6.774;2024-01-15T05:01:32;18.30;70.10
29775;DHT22;16676;51.202;6.774;2024-01-15T05:05:34;18.40;69.50
29775;DHT22;16676;51.202;6.774;2024-01-15T05:09:37;18.60;69.10
29775;DHT22;16676;51.202;6.774;2024-01-15T05:13:39;18.70;68.80
29775;DHT22;16676;51.202;6.774;2024-01-15T05:17:41;18.70;68.40
29775;DHT22;16676;51.202;6.774;2024-01-15T05:21:43;18.80;68.20
29775;DHT22;16676;51.202;6.774;2024-01-15T05:25:46;18.80;67.90
29775;DHT22;16676;51.202;6.774;2024-01-15T05:29:48;18.80;67.90
29775;DHT22;16676;51.202;6.774;2024-01-15T05:33:50;18.80;67.70
29775;DHT22;16676;51.202;6.774;2024-01-15T05:37:51;18.80;68.30
29775;DHT22;16676;51.202;6.774;2024-01-15T05:41:55;18.90;67.80
29775;DHT22;16676;51.202;6.774;2024-01-15T05:45:56;18.80;67.60
29775;DHT22;16676;51.202;6.774;2024-01-15T05:50:00;18.80;67.30
29775;DHT22;16676;51.202;6.774;2024-01-15T05:54:02;18.80;67.30
29775;DHT22;16676;51.202;6.774;2024-01-15T05:58:05;18.80;67.60
29775;DHT22;16676;51.202;6.774;2024-01-15T06:02:07;18.80;67.40
29775;DHT22;16676;51.202;6.774;2024-01-15T06:06:09;18.80;67.50
29775;DHT22;16676;51.202;6.774;2024-01-15T06:10:11;18.80;67.50
29775;DHT22;16676;51.202;6.774;2024-01-15T06:14:14;18.80;67.50
29775;DHT22;16676;51.202;6.774;2024-01-15T06:18:16;18.80;67.40
29775;DHT22;16676;51.202;6.774;2024-01-15T06:22:18;18.80;67.20
29775;DHT22;16676;51.202;6.774;2024-01-15T06:26:20;18.80;67.10
29775;DHT22;16676;51.202;6.774;2024-01-15T06:30:24;18.70;67.20
29775;DHT22;16676;51.202;6.774;2024-01-15T06:34:25;18.70;67.60
29775;DHT22;16676;51.202;6.774;2024-01-15T06:38:27;18.70;67.60
29775;DHT22;16676;51.202;6.774;2024-01-15T06:42:29;18.60;67.10
29775;DHT22;16676;51.202;6.774;2024-01-15T06:46:32;18.60;66.80
29775;DHT22;16676;51.202;6.774;2024-01-15T06:50:34;18.60;66.80
29775;DHT22;16676;51.202;6.774;2024-01-15T06:54:36;18.60;66.70
29775;DHT22;16676;51.202;6.774;2024-01-15T06:58:38;18.50;66.70
29775;DHT22;16676;51.202;6.774;2024-01-15T07:02:41;18.50;66.20
29775;DHT22;16676;51.202;6.774;2024-01-15T07:06:43;18.50;66.30
29775;DHT22;16676;51.202;6.774;2024-01-15T07:10:45;18.40;65.90
29775;DHT22;16676;51.202;6.774;2024-01-15T07:14:47;18.40;66.10
29775;DHT22;16676;51.202;6.774;2024-01-15T07:18:50;18.40;66.00
29775;DHT22;16676;51.202;6.774;2024-01-15T07:22:52;18.40;66.00
29775;DHT22;16676;51.202;6.774;2024-01-15T07:26:54;18.40;66.10
29775;DHT22;16676;51.202;6.774;2024-01-15T07:30:56;18.40;66.00
29775;DHT22;16676;51.202;6.774;2024-01-15T07:34:59;18.30;66.00
29775;DHT22;16676;51.202;6.774;2024-01-15T07:39:01;18.30;66.20
29775;DHT22;16676;51.202;6.774;2024-01-15T07:43:04;18.30;66.30
29775;DHT22;16676;51.202;6.774;2024-01-15T07:47:06;18.20;66.40
29775;DHT22;16676;51.202;6.774;2024-01-15T07:51:10;18.30;67.70
29775;DHT22;16676;51.202;6.774;2024-01-15T07:55:12;18.50;67.40
29775;DHT22;16676;51.202;6.774;2024-01-15T07:59:14;18.80;66.40
29775;DHT22;16676;51.202;6.774;2024-01-15T08:03:16;19.10;65.70
29775;DHT22;16676;51.202;6.774;2024-01-15T08:07:19;19.40;64.80
29775;DHT22;16676;51.202;6.774;2024-01-15T08:11:21;19.60;64.10
29775;DHT22;16676;51.202;6.774;2024-01-15T08:15:23;19.80;63.70
29775;DHT22;16676;51.202;6.774;2024-01-15T08:19:25;19.90;62.70
29775;DHT22;16676;51.202;6.774;2024-01-15T08:23:28;20.10;62.50
29775;DHT22;16676;51.202;6.774;2024-01-15T08:27:31;20.30;62.30
29775;DHT22;16676;51.202;6.774;2024-01-15T08:31:33;20.50;62.10
29775;DHT22;16676;51.202;6.774;2024-01-15T08:35:35;20.70;61.90
29775;DHT22;16676;51.202;6.774;2024-01-15T08:39:38;20.80;61.90
29775;DHT22;16676;51.202;6.774;2024-01-15T08:43:40;20.90;61.80
29775;DHT22;16676;51.202;6.774;2024-01-15T08:47:42;21.10;61.90
29775;DHT22;16676;51.202;6.774;2024-01-15T08:51:44;21.20;61.80
29775;DHT22;16676;51.202;6.774;2024-01-15T08:55:47;21.40;61.60
29775;DHT22;16676;51.202;6.774;2024-01-15T08:59:50;21.50;61.60
29775;DHT22;16676;51.202;6.774;2024-01-15T09:03:52;21.60;61.40
29775;DHT22;16676;51.202;6.774;2024-01-15T09:07:54;21.70;61.50
29775;DHT22;16676;51.202;6.774;2024-01-15T09:11:57;21.80;61.60
29775;DHT22;16676;51.202;6.774;2024-01-15T09:15:59;21.90;61.50
29775;DHT22;16676;51.202;6.774;2024-01-15T09:20:01;22.00;61.40
29775;DHT22;16676;51.202;6.774;2024-01-15T09:24:05;22.00;61.50
29775;DHT22;16676;51.202;6.774;2024-01-15T09:28:08;22.10;61.70
29775;DHT22;16676;51.202;6.774;2024-01-15T09:32:30;22.10;61.70
29775;DHT22;16676;51.202;6.774;2024-01-15T09:36:53;22.00;61.70
29775;DHT22;16676;51.202;6.774;2024-01-15T09:41:15;22.00;61.80
29775;DHT22;16676;51.202;6.774;2024-01-15T09:45:38;22.00;62.80
29775;DHT22;16676;51.202;6.774;2024-01-15T09:49:41;22.00;62.50
29775;DHT22;16676;51.202;6.774;2024-01-15T09:53:43;21.90;62.50
29775;DHT22;16676;51.202;6.774;2024-01-15T09:57:45;21.90;62.60
29775;DHT22;16676;51.202;6.774;2024-01-15T10:01:50;21.90;62.90
29775;DHT22;16676;51.202;6.774;2024-01-15T10:05:54;21.90;62.80
29775;DHT22;16676;51.202;6.774;2024-01-15T10:09:56;21.80;62.90
29775;DHT22;16676;51.202;6.774;2024-01-15T10:13:58;21.80;63.40
29775;DHT22;16676;51.202;6.774;2024-01-15T10:18:01;21.80;63.10
29775;DHT22;16676;51.202;6.774;2024-01-15T10:22:03;21.70;63.30
29775;DHT22;16676;51.202;6.774;2024-01-15T10:26:05;21.70;63.60
29775;DHT22;16676;51.202;6.774;2024-01-15T10:30:08;21.60;63.40
29775;DHT22;16676;51.202;6.774;2024-01-15T10:34:12;21.60;63.60
29775;DHT22;16676;51.202;6.774;2024-01-15T10:38:15;21.60;64.00
29775;DHT22;16676;51.202;6.774;2024-01-15T10:42:18;21.60;64.20
29775;DHT22;16676;51.202;6.774;2024-01-15T10:46:20;21.50;64.10
29775;DHT22;16676;51.202;6.774;2024-01-15T10:50:25;21.50;64.30
29775;DHT22;16676;51.202;6.774;2024-01-15T10:54:27;21.40;64.30
29775;DHT22;16676;51.202;6.774;2024-01-15T10:58:31;21.40;64.60
29775;DHT22;16676;51.202;6.774;2024-01-15T11:02:36;21.40;64.60
29775;DHT22;16676;51.202;6.774;2024-01-15T11:06:44;21.30;64.80
29775;DHT22;16676;51.202;6.774;2024-01-15T11:10:47;21.30;65.00
29775;DHT22;16676;51.202;6.774;2024-01-15T11:14:52;21.20;64.90
29775;DHT22;16676;51.202;6.774;2024-01-15T11:19:05;21.20;65.00
29775;DHT22;16676;51.202;6.774;2024-01-15T11:23:10;21.20;65.00
29775;DHT22;16676;51.202;6.774;2024-01-15T11:27:12;21.10;65.10
29775;DHT22;16676;51.202;6.774;2024-01-15T11:31:14;21.10;65.30
29775;DHT22;16676;51.202;6.774;2024-01-15T11:35:17;21.00;65.20
29775;DHT22;16676;51.202;6.774;2024-01-15T11:39:42;20.90;65.50
29775;DHT22;16676;51.202;6.774;2024-01-15T11:43:44;20.80;66.50
29775;DHT22;16676;51.202;6.774;2024-01-15T11:48:09;20.70;67.20
29775;DHT22;16676;51.202;6.774;2024-01-15T11:52:11;20.60;67.50
29775;DHT22;16676;51.202;6.774;2024-01-15T11:56:16;20.60;67.60
29775;DHT22;16676;51.202;6.774;2024-01-15T12:00:19;20.70;66.80
29775;DHT22;16676;51.202;6.774;2024-01-15T12:04:21;20.60;66.70
29775;DHT22;16676;51.202;6.774;2024-01-15T12:08:23;20.40;67.60
29775;DHT22;16676;51.202;6.774;2024-01-15T12:12:36;20.40;67.80
29775;DHT22;16676;51.202;6.774;2024-01-15T12:16:40;20.30;68.10
29775;DHT22;16676;51.202;6.774;2024-01-15T12:20:43;20.20;68.20
29775;DHT22;16676;51.202;6.774;2024-01-15T12:24:47;20.20;68.10
29775;DHT22;16676;51.202;6.774;2024-01-15T12:28:51;20.20;67.90
29775;DHT22;16676;51.202;6.774;2024-01-15T12:32:53;20.10;67.90
29775;DHT22;16676;51.202;6.774;2024-01-15T12:36:57;20.10;67.80
29775;DHT22;16676;51.202;6.774;2024-01-15T12:41:00;20.00;67.80
29775;DHT22;16676;51.202;6.774;2024-01-15T12:45:05;20.00;68.00
29775;DHT22;16676;51.202;6.774;2024-01-15T12:49:08;19.90;68.10
29775;DHT22;16676;51.202;6.774;2024-01-15T12:53:10;19.80;68.30
29775;DHT22;16676;51.202;6.774;2024-01-15T12:57:12;19.70;68.40
29775;DHT22;16676;51.202;6.774;2024-01-15T13:01:16;19.70;68.40
29775;DHT22;16676;51.202;6.774;2024-01-15T13:05:19;19.70;67.30
29775;DHT22;16676;51.202;6.774;2024-01-15T13:09:21;19.60;58.00
29775;DHT22;16676;51.202;6.774;2024-01-15T13:13:23;19.30;57.00
29775;DHT22;16676;51.202;6.774;2024-01-15T13:17:26;19.40;58.40
29775;DHT22;16676;51.202;6.774;2024-01-15T13:21:30;19.60;58.80
29775;DHT22;16676;51.202;6.774;2024-01-15T13:25:31;19.80;59.40
29775;DHT22;16676;51.202;6.774;2024-01-15T13:29:34;19.90;59.70
29775;DHT22;16676;51.202;6.774;2024-01-15T13:33:38;20.10;60.10
29775;DHT22;16676;51.202;6.774;2024-01-15T13:37:40;20.10;60.40
29775;DHT22;16676;51.202;6.774;2024-01-15T13:41:42;20.20;60.80
29775;DHT22;16676;51.202;6.774;2024-01-15T13:45:45;20.30;60.90
29775;DHT22;16676;51.202;6.774;2024-01-15T13:49:48;20.30;61.10
29775;DHT22;16676;51.202;6.774;2024-01-15T13:53:50;20.30;61.50
29775;DHT22;16676;51.202;6.774;2024-01-15T13:57:52;20.30;62.50
29775;DHT22;16676;51.202;6.774;2024-01-15T14:01:53;20.30;61.90
29775;DHT22;16676;51.202;6.774;2024-01-15T14:05:57;20.30;62.40
29775;DHT22;16676;51.202;6.774;2024-01-15T14:09:59;20.20;62.70
29775;DHT22;16676;51.202;6.774;2024-01-15T14:14:01;20.20;63.30
29775;DHT22;16676;51.202;6.774;2024-01-15T14:18:03;20.10;63.80
29775;DHT22;16676;51.202;6.774;2024-01-15T14:22:07;20.10;64.00
29775;DHT22;16676;51.202;6.774;2024-01-15T14:26:08;20.00;64.30
29775;DHT22;16676;51.202;6.774;2024-01-15T14:30:11;20.00;64.70
29775;DHT22;16676;51.202;6.774;2024-01-15T14:34:16;19.90;65.00
29775;DHT22;16676;51.202;6.774;2024-01-15T14:38:20;19.90;65.10
29775;DHT22;16676;51.202;6.774;2024-01-15T14:42:23;19.90;65.60
29775;DHT22;16676;51.202;6.774;2024-01-15T14:46:25;19.80;65.70
29775;DHT22;16676;51.202;6.774;2024-01-15T14:50:28;19.80;66.10
29775;DHT22;16676;51.202;6.774;2024-01-15T14:54:31;19.80;66.30
29775;DHT22;16676;51.202;6.774;2024-01-15T14:58:33;19.80;66.40
29775;DHT22;16676;51.202;6.774;2024-01-15T15:02:35;19.70;66.50
29775;DHT22;16676;51.202;6.774;2024-01-15T15:06:37;19.80;66.80
29775;DHT22;16676;51.202;6.774;2024-01-15T15:10:41;19.70;66.80
29775;DHT22;16676;51.202;6.774;2024-01-15T15:14:43;19.70;66.90
29775;DHT22;16676;51.202;6.774;2024-01-15T15:18:45;19.70;67.00
29775;DHT22;16676;51.202;6.774;2024-01-15T15:22:47;19.70;67.20
29775;DHT22;16676;51.202;6.774;2024-01-15T15:26:51;19.70;67.50
29775;DHT22;16676;51.202;6.774;2024-01-15T15:30:53;19.70;67.40
29775;DHT22;16676;51.202;6.774;2024-01-15T15:34:54;19.70;67.70
29775;DHT22;16676;51.202;6.774;2024-01-15T15:38:56;19.70;67.70
29775;DHT22;16676;51.202;6.774;2024-01-15T15:43:00;19.70;67.80
29775;DHT22;16676;51.202;6.774;2024-01-15T15:47:03;19.70;68.00
29775;DHT22;16676;51.202;6.774;2024-01-15T15:51:04;19.70;68.20
29775;DHT22;16676;51.202;6.774;2024-01-15T15:55:07;19.70;68.40
29775;DHT22;16676;51.202;6.774;2024-01-15T15:59:10;19.60;68.40
29775;DHT22;16676;51.202;6.774;2024-01-15T16:03:14;19.70;68.40
29775;DHT22;16676;51.202;6.774;2024-01-15T16:07:15;19.70;68.40
29775;DHT22;16676;51.202;6.774;2024-01-15T16:11:17;19.60;68.30
29775;DHT22;16676;51.202;6.774;2024-01-15T16:15:22;19.60;68.50
29775;DHT22;16676;51.202;6.774;2024-01-15T16:19:24;19.70;68.50
29775;DHT22;16676;51.202;6.774;2024-01-15T16:23:26;19.70;68.40
29775;DHT22;16676;51.202;6.774;2024-01-15T16:27:28;19.60;68.40
29775;DHT22;16676;51.202;6.774;2024-01-15T16:31:31;19.60;68.40
29775;DHT22;16676;51.202;6.774;2024-01-15T16:35:33;19.60;68.60
29775;DHT22;16676;51.202;6.774;2024-01-15T16:39:35;19.70;68.70
29775;DHT22;16676;51.202;6.774;2024-01-15T16:43:37;19.70;68.70
29775;DHT22;16676;51.202;6.774;2024-01-15T16:47:40;19.60;68.70
29775;DHT22;16676;51.202;6.774;2024-01-15T16:51:42;19.60;68.80
29775;DHT22;16676;51.202;6.774;2024-01-15T16:55:44;19.60;68.90
29775;DHT22;16676;51.202;6.774;2024-01-15T16:59:46;19.60;68.80
29775;DHT22;16676;51.202;6.774;2024-01-15T17:03:49;19.60;68.90
29775;DHT22;16676;51.202;6.774;2024-01-15T17:07:52;19.60;69.00
29775;DHT22;16676;51.202;6.774;2024-01-15T17:11:55;19.50;61.00
29775;DHT22;16676;51.202;6.774;2024-01-15T17:15:56;19.40;63.20
29775;DHT22;16676;51.202;6.774;2024-01-15T17:20:00;19.20;63.80
29775;DHT22;16676;51.202;6.774;2024-01-15T17:24:03;19.10;66.00
29775;DHT22;16676;51.202;6.774;2024-01-15T17:28:05;19.10;68.40
29775;DHT22;16676;51.202;6.774;2024-01-15T17:32:07;19.10;70.40
29775;DHT22;16676;51.202;6.774;2024-01-15T17:36:11;19.10;71.50
29775;DHT22;16676;51.202;6.774;2024-01-15T17:40:13;19.00;73.10
29775;DHT22;16676;51.202;6.774;2024-01-15T17:44:15;19.10;70.40
29775;DHT22;16676;51.202;6.774;2024-01-15T17:48:17;19.10;61.90
29775;DHT22;16676;51.202;6.774;2024-01-15T17:52:20;18.80;59.40
29775;DHT22;16676;51.202;6.774;2024-01-15T17:56:22;18.20;52.60
29775;DHT22;16676;51.202;6.774;2024-01-15T18:00:24;17.60;54.30
29775;DHT22;16676;51.202;6.774;2024-01-15T18:04:26;17.00;51.60
29775;DHT22;16676;51.202;6.774;2024-01-15T18:08:29;16.70;53.60
29775;DHT22;16676;51.202;6.774;2024-01-15T18:12:31;16.30;48.50
29775;DHT22;16676;51.202;6.774;2024-01-15T18:16:33;15.80;52.70
29775;DHT22;16676;51.202;6.774;2024-01-15T18:20:35;15.60;52.10
29775;DHT22;16676;51.202;6.774;2024-01-15T18:24:39;15.50;55.70
29775;DHT22;16676;51.202;6.774;2024-01-15T18:28:41;16.30;56.20
29775;DHT22;16676;51.202;6.774;2024-01-15T18:32:43;17.00;56.20
29775;DHT22;16676;51.202;6.774;2024-01-15T18:36:45;17.50;56.20
29775;DHT22;16676;51.202;6.774;2024-01-15T18:40:49;17.90;56.40
29775;DHT22;16676;51.202;6.774;2024-01-15T18:44:52;18.20;56.10
29775;DHT22;16676;51.202;6.774;2024-01-15T18:48:54;18.50;56.20
29775;DHT22;16676;51.202;6.774;2024-01-15T18:52:56;18.60;56.00
29775;DHT22;16676;51.202;6.774;2024-01-15T18:57:00;18.80;56.10
29775;DHT22;16676;51.202;6.774;2024-01-15T19:01:02;18.90;58.70
29775;DHT22;16676;51.202;6.774;2024-01-15T19:05:05;18.90;59.10
29775;DHT22;16676;51.202;6.774;2024-01-15T19:09:07;18.80;60.70
29775;DHT22;16676;51.202;6.774;2024-01-15T19:13:11;18.80;62.70
29775;DHT22;16676;51.202;6.774;2024-01-15T19:17:13;18.90;63.20
29775;DHT22;16676;51.202;6.774;2024-01-15T19:21:15;18.90;67.60
29775;DHT22;16676;51.202;6.774;2024-01-15T19:25:17;19.00;70.20
29775;DHT22;16676;51.202;6.774;2024-01-15T19:29:20;19.00;72.20
29775;DHT22;16676;51.202;6.774;2024-01-15T19:33:22;19.20;73.00
29775;DHT22;16676;51.202;6.774;2024-01-15T19:37:25;19.20;73.20
29775;DHT22;16676;51.202;6.774;2024-01-15T19:41:27;19.20;73.90
29775;DHT22;16676;51.202;6.774;2024-01-15T19:45:30;19.30;73.80
29775;DHT22;16676;51.202;6.774;2024-01-15T19:49:32;19.30;75.20
29775;DHT22;16676;51.202;6.774;2024-01-15T19:53:33;19.30;74.70
29775;DHT22;16676;51.202;6.774;2024-01-15T19:57:35;19.30;75.70
29775;DHT22;16676;51.202;6.774;2024-01-15T20:01:39;19.30;75.40
29775;DHT22;16676;51.202;6.774;2024-01-15T20:05:41;19.30;75.30
29775;DHT22;16676;51.202;6.774;2024-01-15T20:09:43;19.30;75.70
29775;DHT22;16676;51.202;6.774;2024-01-15T20:13:45;19.30;74.80
29775;DHT22;16676;51.202;6.774;2024-01-15T20:17:48;19.30;75.00
29775;DHT22;16676;51.202;6.774;2024-01-15T20:21:50;19.30;75.60
29775;DHT22;16676;51.202;6.774;2024-01-15T20:25:52;19.30;75.50
29775;DHT22;16676;51.202;6.774;2024-01-15T20:29:54;19.30;75.00
29775;DHT22;16676;51.202;6.774;2024-01-15T20:33:59;19.30;74.60
29775;DHT22;16676;51.202;6.774;2024-01-15T20:38:01;19.20;74.30
29775;DHT22;16676;51.202;6.774;2024-01-15T20:42:04;19.20;74.50
29775;DHT22;16676;51.202;6.774;2024-01-15T20:46:06;19.20;74.60
29775;DHT22;16676;51.202;6.774;2024-01-15T20:50:10;19.20;74.20
29775;DHT22;16676;51.202;6.774;2024-01-15T20:54:12;19.20;74.30
29775;DHT22;16676;51.202;6.774;2024-01-15T20:58:20;19.20;73.90
29775;DHT22;16676;51.202;6.774;2024-01-15T21:02:22;19.20;74.00
29775;DHT22;16676;51.202;6.774;2024-01-15T21:06:26;19.20;73.90
29775;DHT22;16676;51.202;6.774;2024-01-15T21:10:27;19.10;73.80
29775;DHT22;16676;51.202;6.774;2024-01-15T21:14:29;19.10;69.60
29775;DHT22;16676;51.202;6.774;2024-01-15T21:18:33;19.00;68.30
29775;DHT22;16676;51.202;6.774;2024-01-15T21:22:36;19.00;67.10
29775;DHT22;16676;51.202;6.774;2024-01-15T21:26:38;19.00;66.30
29775;DHT22;16676;51.202;6.774;2024-01-15T21:30:40;19.00;66.00
29775;DHT22;16676;51.202;6.774;2024-01-15T21:34:42;18.90;65.20
29775;DHT22;16676;51.202;6.774;2024-01-15T21:38:45;18.90;64.70
29775;DHT22;16676;51.202;6.774;2024-01-15T21:42:47;18.80;64.70
29775;DHT22;16676;51.202;6.774;2024-01-15T21:46:49;18.80;64.30
29775;DHT22;16676;51.202;6.774;2024-01-15T21:50:51;18.80;64.60
29775;DHT22;16676;51.202;6.774;2024-01-15T21:54:54;18.70;64.30
29775;DHT22;16676;51.202;6.774;2024-01-15T21:58:56;18.70;64.40
29775;DHT22;16676;51.202;6.774;2024-01-15T22:02:58;18.70;64.50
29775;DHT22;16676;51.202;6.774;2024-01-15T22:07:00;18.60;64.60
29775;DHT22;16676;51.202;6.774;2024-01-15T22:11:04;18.60;64.30
29775;DHT22;16676;51.202;6.774;2024-01-15T22:15:07;18.60;64.40
29775;DHT22;16676;51.202;6.774;2024-01-15T22:19:09;18.60;64.60
29775;DHT22;16676;51.202;6.774;2024-01-15T22:23:11;18.60;64.80
29775;DHT22;16676;51.202;6.774;2024-01-15T22:27:15;18.50;64.90
29775;DHT22;16676;51.202;6.774;2024-01-15T22:31:16;18.50;65.10
29775;DHT22;16676;51.202;6.774;2024-01-15T22:35:18;18.50;65.10
29775;DHT22;16676;51.202;6.774;2024-01-15T22:39:20;18.40;65.10
29775;DHT22;16676;51.202;6.774;2024-01-15T22:43:24;18.40;65.20
29775;DHT22;16676;51.202;6.774;2024-01-15T22:47:25;18.40;65.30
29775;DHT22;16676;51.202;6.774;2024-01-15T22:51:27;18.40;65.40
29775;DHT22;16676;51.202;6.774;2024-01-15T22:55:29;18.30;65.40
29775;DHT22;16676;51.202;6.774;2024-01-15T22:59:32;18.30;65.70
29775;DHT22;16676;51.202;6.774;2024-01-15T23:03:34;18.30;65.50
29775;DHT22;16676;51.202;6.774;2024-01-15T23:07:36;18.30;65.80
29775;DHT22;16676;51.202;6.774;2024-01-15T23:11:38;18.20;65.90
29775;DHT22;16676;51.202;6.774;2024-01-15T23:15:42;18.10;65.90
29775;DHT22;16676;51.202;6.774;2024-01-15T23:19:44;18.10;66.10
29775;DHT22;16676;51.202;6.774;2024-01-15T23:23:46;18.10;66.30
29775;DHT22;16676;51.202;6.774;2024-01-15T23:27:48;18.00;66.40
29775;DHT22;16676;51.202;6.774;2024-01-15T23:31:51;17.90;66.60
29775;DHT22;16676;51.202;6.774;2024-01-15T23:35:53;17.90;66.80
29775;DHT22;16676;51.202;6.774;2024-01-15T23:39:55;17.90;66.70
29775;DHT22;16676;51.202;6.774;2024-01-15T23:43:58;17.90;66.50
29775;DHT22;16676;51.202;6.774;2024-01-15T23:48:01;17.80;66.80
29775;DHT22;16676;51.202;6.774;2024-01-15T23:52:04;17.70;67.10
29775;DHT22;16676;51.202;6.774;2024-01-15T23:56:06;17.60;67.40
